Time;durP1;ratioP1;P1;durP2;ratioP2;P2;SDS_P1;SDS_P2;PMS_P1;PMS_P2;Temp;Humidity;BMP_temperature;BMP_pressure;BME280_temperature;BME280_humidity;BME280_pressure;Samples;Min_cycle;Max_cycle;Signal;HPM_P1;HPM_P2
2023/12/20 00:00:11;;;;;;;1999.90;999.90;;;;;;;;;;5008240;28;20058;-90
2023/12/20 00:02:37;;;;;;;1999.90;999.90;;;;;;;;;;5012851;28;20056;-90
2023/12/20 00:05:05;;;;;;;1999.90;999.90;;;;;;;;;;5000318;28;20050;-89
2023/12/20 00:07:31;;;;;;;1999.90;999.90;;;;;;;;;;4996866;28;20050;-91
2023/12/20 00:09:58;;;;;;;1999.90;999.90;;;;;;;;;;4999743;28;20077;-91
2023/12/20 00:12:24;;;;;;;1999.90;999.90;;;;;;;;;;5001597;28;20408;-89
2023/12/20 00:14:51;;;;;;;1999.90;999.90;;;;;;;;;;5002010;28;20045;-91
2023/12/20 00:17:19;;;;;;;1999.90;999.90;;;;;;;;;;4999578;28;20064;-90
2023/12/20 00:19:45;;;;;;;1999.90;999.90;;;;;;;;;;5002661;28;20054;-89
2023/12/20 00:22:12;;;;;;;1999.90;999.90;;;;;;;;;;4998218;28;20056;-88
2023/12/20 00:24:38;;;;;;;1999.90;999.90;;;;;;;;;;4998998;28;20050;-92
2023/12/20 00:27:05;;;;;;;1999.90;999.90;;;;;;;;;;5004742;28;20050;-90
2023/12/20 00:29:32;;;;;;;1999.90;999.90;;;;;;;;;;4999222;28;20050;-90
2023/12/20 00:31:58;;;;;;;1999.90;999.90;;;;;;;;;;5003188;28;20120;-90
2023/12/20 00:34:26;;;;;;;1999.90;999.90;;;;;;;;;;5003070;28;20042;-91
2023/12/20 00:36:53;;;;;;;1999.90;999.90;;;;;;;;;;5002023;28;20050;-91
2023/12/20 00:39:19;;;;;;;1999.90;999.90;;;;;;;;;;5000870;28;20152;-92
2023/12/20 00:41:46;;;;;;;1999.90;999.90;;;;;;;;;;4999047;28;20396;-93
2023/12/20 00:44:13;;;;;;;1999.90;999.90;;;;;;;;;;5003316;28;20061;-91
2023/12/20 00:46:39;;;;;;;1999.90;999.90;;;;;;;;;;5001790;28;20054;-92
2023/12/20 00:49:06;;;;;;;1999.90;999.90;;;;;;;;;;4999594;28;20058;-90
2023/12/20 00:51:34;;;;;;;1999.90;999.90;;;;;;;;;;5003078;28;20053;-89
2023/12/20 00:54:00;;;;;;;1999.90;999.90;;;;;;;;;;5002461;28;20054;-90
2023/12/20 00:56:27;;;;;;;1999.90;999.90;;;;;;;;;;4998503;28;20053;-89
2023/12/20 00:58:53;;;;;;;1999.90;999.90;;;;;;;;;;5001737;28;20060;-90
2023/12/20 01:01:20;;;;;;;1999.90;999.90;;;;;;;;;;5001744;28;20515;-91
2023/12/20 01:03:46;;;;;;;1999.90;999.90;;;;;;;;;;5002381;28;20041;-89
2023/12/20 01:06:13;;;;;;;1999.90;999.90;;;;;;;;;;4999987;28;20054;-90
2023/12/20 01:08:41;;;;;;;1999.90;999.90;;;;;;;;;;4998852;28;20381;-90
2023/12/20 01:11:07;;;;;;;1999.90;999.90;;;;;;;;;;5000438;28;20058;-90
2023/12/20 01:13:34;;;;;;;1999.90;999.90;;;;;;;;;;5001301;28;20105;-90
2023/12/20 01:16:01;;;;;;;1999.90;999.90;;;;;;;;;;5002467;28;20492;-90
2023/12/20 01:18:27;;;;;;;1999.90;999.90;;;;;;;;;;5001337;28;20077;-90
2023/12/20 01:20:54;;;;;;;1999.90;999.90;;;;;;;;;;5002618;28;20113;-92
2023/12/20 01:23:20;;;;;;;1999.90;999.90;;;;;;;;;;5001515;28;20043;-91
2023/12/20 01:25:49;;;;;;;1999.90;999.90;;;;;;;;;;4996722;28;20069;-90
2023/12/20 01:28:16;;;;;;;1999.90;999.90;;;;;;;;;;4998038;28;20045;-90
2023/12/20 01:30:42;;;;;;;1999.90;999.90;;;;;;;;;;4999947;28;20423;-90
2023/12/20 01:33:09;;;;;;;1999.90;999.90;;;;;;;;;;4999886;28;20140;-89
2023/12/20 01:35:35;;;;;;;1999.90;999.90;;;;;;;;;;5002922;28;20050;-89
2023/12/20 01:38:02;;;;;;;1999.90;999.90;;;;;;;;;;5005877;28;20058;-90
2023/12/20 01:40:29;;;;;;;1999.90;999.90;;;;;;;;;;5004146;28;20046;-91
2023/12/20 01:43:09;;;;;;;1999.90;999.90;;;;;;;;;;5004997;28;20056;-90
2023/12/20 01:45:36;;;;;;;1999.90;999.90;;;;;;;;;;5001309;28;20053;-91
2023/12/20 01:48:03;;;;;;;1999.90;999.90;;;;;;;;;;5000420;28;20045;-90
2023/12/20 01:50:31;;;;;;;1999.90;999.90;;;;;;;;;;5003707;28;20500;-90
2023/12/20 01:52:58;;;;;;;1999.90;999.90;;;;;;;;;;5002918;28;20062;-91
2023/12/20 01:55:25;;;;;;;1999.90;999.90;;;;;;;;;;5002850;28;20056;-89
2023/12/20 01:57:52;;;;;;;1999.90;999.90;;;;;;;;;;5000981;28;20050;-90
2023/12/20 02:00:23;;;;;;;1999.90;999.90;;;;;;;;;;5003385;28;20052;-90
2023/12/20 02:02:49;;;;;;;1999.90;999.90;;;;;;;;;;5002782;28;20046;-92
2023/12/20 02:05:17;;;;;;;1999.90;999.90;;;;;;;;;;5002474;28;20138;-92
2023/12/20 02:07:43;;;;;;;1999.90;999.90;;;;;;;;;;5005135;28;20556;-91
2023/12/20 02:10:10;;;;;;;1999.90;999.90;;;;;;;;;;5004218;28;20129;-91
2023/12/20 02:12:36;;;;;;;1999.90;999.90;;;;;;;;;;5002100;28;20064;-90
2023/12/20 02:15:03;;;;;;;1999.90;999.90;;;;;;;;;;5006666;28;20452;-89
2023/12/20 02:17:32;;;;;;;1999.90;999.90;;;;;;;;;;5003132;28;20054;-93
2023/12/20 02:19:59;;;;;;;1999.90;999.90;;;;;;;;;;5003325;28;20136;-91
2023/12/20 02:22:27;;;;;;;1999.90;999.90;;;;;;;;;;5003199;28;20404;-91
2023/12/20 02:24:53;;;;;;;1999.90;999.90;;;;;;;;;;5001853;28;20053;-91
2023/12/20 02:27:20;;;;;;;1999.90;999.90;;;;;;;;;;5005794;28;20053;-93
2023/12/20 02:29:48;;;;;;;1999.90;999.90;;;;;;;;;;5006280;28;20049;-90
2023/12/20 02:32:14;;;;;;;1999.90;999.90;;;;;;;;;;5003997;28;20041;-92
2023/12/20 02:34:41;;;;;;;1999.90;999.90;;;;;;;;;;5004289;28;20046;-90
2023/12/20 02:37:07;;;;;;;1999.90;999.90;;;;;;;;;;5003115;28;20427;-92
2023/12/20 02:39:35;;;;;;;1999.90;999.90;;;;;;;;;;5003725;28;20415;-89
2023/12/20 02:42:02;;;;;;;1999.90;999.90;;;;;;;;;;5002839;28;20050;-89
2023/12/20 02:44:28;;;;;;;1999.90;999.90;;;;;;;;;;5002325;28;20049;-90
2023/12/20 02:46:55;;;;;;;1999.90;999.90;;;;;;;;;;4996801;28;20058;-90
2023/12/20 02:49:21;;;;;;;1999.90;999.90;;;;;;;;;;5002333;28;20419;-91
2023/12/20 02:51:48;;;;;;;1999.90;999.90;;;;;;;;;;5002498;28;20050;-90
2023/12/20 02:54:14;;;;;;;1999.90;999.90;;;;;;;;;;5003161;28;20057;-91
2023/12/20 02:56:42;;;;;;;1999.90;999.90;;;;;;;;;;5005033;28;20052;-93
2023/12/20 02:59:10;;;;;;;1999.90;999.90;;;;;;;;;;5004275;28;20056;-93
2023/12/20 03:01:42;;;;;;;1999.90;999.90;;;;;;;;;;5000509;28;20483;-90
2023/12/20 03:04:09;;;;;;;1999.90;999.90;;;;;;;;;;5004782;28;20053;-93
2023/12/20 03:06:35;;;;;;;1999.90;999.90;;;;;;;;;;5001562;28;20046;-91
2023/12/20 03:09:02;;;;;;;1999.90;999.90;;;;;;;;;;4997415;28;20057;-90
2023/12/20 03:11:28;;;;;;;1999.90;999.90;;;;;;;;;;5000833;28;20141;-93
2023/12/20 03:13:56;;;;;;;1999.90;999.90;;;;;;;;;;4999731;28;20066;-91
2023/12/20 03:16:23;;;;;;;1999.90;999.90;;;;;;;;;;5006786;28;20046;-90
2023/12/20 03:18:50;;;;;;;1999.90;999.90;;;;;;;;;;5005143;28;20046;-91
2023/12/20 03:21:16;;;;;;;1999.90;999.90;;;;;;;;;;5001956;28;20488;-90
2023/12/20 03:23:43;;;;;;;1999.90;999.90;;;;;;;;;;5004802;28;20046;-91
2023/12/20 03:26:10;;;;;;;1999.90;999.90;;;;;;;;;;5006148;28;20046;-90
2023/12/20 03:28:37;;;;;;;1999.90;999.90;;;;;;;;;;5006936;28;20416;-92
2023/12/20 03:31:05;;;;;;;1999.90;999.90;;;;;;;;;;5006935;28;20054;-91
2023/12/20 03:33:31;;;;;;;1999.90;999.90;;;;;;;;;;5005952;28;20047;-93
2023/12/20 03:35:58;;;;;;;1999.90;999.90;;;;;;;;;;5008625;28;20076;-93
2023/12/20 03:38:24;;;;;;;1999.90;999.90;;;;;;;;;;5009835;28;20077;-90
2023/12/20 03:40:51;;;;;;;1999.90;999.90;;;;;;;;;;5014495;28;20050;-92
2023/12/20 03:43:17;;;;;;;1999.90;999.90;;;;;;;;;;5008803;28;20052;-93
2023/12/20 03:45:44;;;;;;;1999.90;999.90;;;;;;;;;;5008619;28;20065;-91
2023/12/20 03:48:12;;;;;;;1999.90;999.90;;;;;;;;;;5012927;28;20414;-93
2023/12/20 03:50:39;;;;;;;1999.90;999.90;;;;;;;;;;5017288;28;20046;-94
2023/12/20 03:53:06;;;;;;;1999.90;999.90;;;;;;;;;;5020981;28;20061;-93
2023/12/20 03:55:36;;;;;;;1999.90;999.90;;;;;;;;;;5015353;28;20054;-91
2023/12/20 03:58:02;;;;;;;1999.90;999.90;;;;;;;;;;5012376;28;20101;-91
2023/12/20 04:00:29;;;;;;;1999.90;999.90;;;;;;;;;;5018651;28;20105;-88
2023/12/20 04:02:56;;;;;;;1999.90;999.90;;;;;;;;;;5011694;28;20575;-93
2023/12/20 04:05:24;;;;;;;1999.90;999.90;;;;;;;;;;5008766;28;20109;-91
2023/12/20 04:07:51;;;;;;;1999.90;999.90;;;;;;;;;;5023634;28;20041;-92
2023/12/20 04:10:18;;;;;;;1999.90;999.90;;;;;;;;;;5020160;28;20054;-89
2023/12/20 04:12:45;;;;;;;1999.90;999.90;;;;;;;;;;5021393;28;20050;-92
2023/12/20 04:15:11;;;;;;;1999.90;999.90;;;;;;;;;;5018627;28;20030;-88
2023/12/20 04:20:14;;;;;;;1999.90;999.90;;;;;;;;;;5055363;23;20089;-90
2023/12/20 04:22:46;;;;;;;1999.90;999.90;;;;;;;;;;4984973;28;20590;-90
2023/12/20 04:25:12;;;;;;;1999.90;999.90;;;;;;;;;;4979297;28;20509;-82
2023/12/20 04:27:39;;;;;;;1999.90;999.90;;;;;;;;;;4982767;28;20061;-82
2023/12/20 04:37:34;;;;;;;1999.90;999.90;;;;;;;;;;4829506;29;20068;-83
2023/12/20 05:13:54;;;;;;;1999.90;999.90;;;;;;;;;;4741399;29;20046;-90
2023/12/20 05:16:21;;;;;;;1999.90;999.90;;;;;;;;;;4912474;29;20044;-90
2023/12/20 05:18:52;;;;;;;1999.90;999.90;;;;;;;;;;4970735;28;20055;-91
2023/12/20 05:21:18;;;;;;;1999.90;999.90;;;;;;;;;;4984657;28;20061;-92
2023/12/20 05:23:46;;;;;;;1999.90;999.90;;;;;;;;;;4986461;28;20089;-91
2023/12/20 05:26:13;;;;;;;1999.90;999.90;;;;;;;;;;4973189;28;20046;-92
2023/12/20 05:28:40;;;;;;;1999.90;999.90;;;;;;;;;;4985859;28;20046;-92
2023/12/20 05:31:08;;;;;;;1999.90;999.90;;;;;;;;;;4987036;28;20146;-94
2023/12/20 05:33:35;;;;;;;1999.90;999.90;;;;;;;;;;4985188;28;20110;-83
2023/12/20 05:36:23;;;;;;;1999.90;999.90;;;;;;;;;;4979904;28;20060;-84
2023/12/20 05:38:50;;;;;;;1999.90;999.90;;;;;;;;;;4974356;28;20050;-82
2023/12/20 05:41:17;;;;;;;1999.90;999.90;;;;;;;;;;4976823;28;20138;-84
2023/12/20 05:43:43;;;;;;;1999.90;999.90;;;;;;;;;;4980676;28;20070;-82
2023/12/20 05:46:13;;;;;;;1999.90;999.90;;;;;;;;;;4980069;28;20057;-83
2023/12/20 05:48:40;;;;;;;1999.90;999.90;;;;;;;;;;4982358;28;20042;-84
2023/12/20 05:51:07;;;;;;;1999.90;999.90;;;;;;;;;;4968545;28;20498;-84
2023/12/20 05:53:34;;;;;;;1999.90;999.90;;;;;;;;;;4979474;28;20057;-83
2023/12/20 05:56:01;;;;;;;1999.90;999.90;;;;;;;;;;4962484;28;20053;-84
2023/12/20 05:58:30;;;;;;;1999.90;999.90;;;;;;;;;;4977589;28;20050;-83
2023/12/20 06:00:57;;;;;;;1999.90;999.90;;;;;;;;;;4975663;28;20411;-83
2023/12/20 06:03:25;;;;;;;1999.90;999.90;;;;;;;;;;4976631;28;20303;-83
2023/12/20 06:05:52;;;;;;;1999.90;999.90;;;;;;;;;;4957911;28;20053;-82
2023/12/20 06:08:20;;;;;;;1999.90;999.90;;;;;;;;;;4944585;28;20053;-83
2023/12/20 06:10:47;;;;;;;1999.90;999.90;;;;;;;;;;4960766;28;20059;-83
2023/12/20 06:13:14;;;;;;;1999.90;999.90;;;;;;;;;;4977779;28;20069;-83
2023/12/20 06:15:41;;;;;;;1999.90;999.90;;;;;;;;;;4957587;28;20050;-83
2023/12/20 06:18:08;;;;;;;1999.90;999.90;;;;;;;;;;4977741;28;20111;-83
2023/12/20 06:20:36;;;;;;;1999.90;999.90;;;;;;;;;;4979398;28;20051;-83
2023/12/20 06:23:03;;;;;;;1999.90;999.90;;;;;;;;;;4964391;28;20843;-83
2023/12/20 06:25:30;;;;;;;1999.90;999.90;;;;;;;;;;4964123;28;20522;-84
2023/12/20 06:27:57;;;;;;;1999.90;999.90;;;;;;;;;;4967267;28;20069;-84
2023/12/20 06:30:25;;;;;;;1999.90;999.90;;;;;;;;;;4983392;28;20058;-85
2023/12/20 06:32:52;;;;;;;1999.90;999.90;;;;;;;;;;4984355;28;20066;-85
2023/12/20 06:35:19;;;;;;;1999.90;999.90;;;;;;;;;;4971347;28;20058;-85
2023/12/20 06:37:47;;;;;;;1999.90;999.90;;;;;;;;;;4980620;28;20053;-85
2023/12/20 06:40:14;;;;;;;1999.90;999.90;;;;;;;;;;4963694;28;20056;-85
2023/12/20 06:42:41;;;;;;;1999.90;999.90;;;;;;;;;;4980119;28;20050;-84
2023/12/20 06:45:08;;;;;;;1999.90;999.90;;;;;;;;;;4967640;28;20059;-84
2023/12/20 06:47:35;;;;;;;1999.90;999.90;;;;;;;;;;4979131;28;20125;-84
2023/12/20 06:50:02;;;;;;;1999.90;999.90;;;;;;;;;;4983995;28;20493;-84
2023/12/20 06:52:29;;;;;;;1999.90;999.90;;;;;;;;;;4967904;28;20495;-84
2023/12/20 06:54:58;;;;;;;1999.90;999.90;;;;;;;;;;4967185;28;20047;-86
2023/12/20 06:57:25;;;;;;;1999.90;999.90;;;;;;;;;;4967494;28;20042;-85
2023/12/20 06:59:52;;;;;;;1999.90;999.90;;;;;;;;;;4980100;28;20054;-85
2023/12/20 07:02:19;;;;;;;1999.90;999.90;;;;;;;;;;4980462;28;20137;-82
2023/12/20 07:04:49;;;;;;;1999.90;999.90;;;;;;;;;;4967608;28;20057;-85
2023/12/20 07:07:16;;;;;;;1999.90;999.90;;;;;;;;;;4983728;28;20050;-85
2023/12/20 07:09:43;;;;;;;1999.90;999.90;;;;;;;;;;4983692;28;20042;-85
2023/12/20 07:12:11;;;;;;;1999.90;999.90;;;;;;;;;;4950503;28;20141;-85
2023/12/20 07:14:38;;;;;;;1999.90;999.90;;;;;;;;;;4967046;28;20058;-85
2023/12/20 07:17:05;;;;;;;1999.90;999.90;;;;;;;;;;4978460;28;20057;-85
2023/12/20 07:19:32;;;;;;;1999.90;999.90;;;;;;;;;;4985145;28;20093;-85
2023/12/20 07:21:58;;;;;;;1999.90;999.90;;;;;;;;;;4984000;28;20058;-85
2023/12/20 07:24:25;;;;;;;1999.90;999.90;;;;;;;;;;4966824;28;20046;-84
2023/12/20 07:26:52;;;;;;;1999.90;999.90;;;;;;;;;;4955991;28;20043;-85
2023/12/20 07:29:20;;;;;;;1999.90;999.90;;;;;;;;;;4965686;28;20054;-85
2023/12/20 07:31:47;;;;;;;1999.90;999.90;;;;;;;;;;4980432;28;20101;-85
2023/12/20 07:34:15;;;;;;;1999.90;999.90;;;;;;;;;;4966360;28;20055;-88
2023/12/20 07:36:42;;;;;;;1999.90;999.90;;;;;;;;;;4970637;28;20058;-87
2023/12/20 07:39:09;;;;;;;1999.90;999.90;;;;;;;;;;4985529;28;20133;-89
2023/12/20 07:41:35;;;;;;;1999.90;999.90;;;;;;;;;;4979828;28;20046;-87
2023/12/20 07:44:02;;;;;;;1999.90;999.90;;;;;;;;;;4961169;28;20062;-88
2023/12/20 07:46:31;;;;;;;1999.90;999.90;;;;;;;;;;4973334;28;20046;-88
2023/12/20 07:48:58;;;;;;;1999.90;999.90;;;;;;;;;;4991076;28;20606;-89
2023/12/20 07:51:25;;;;;;;1999.90;999.90;;;;;;;;;;4965000;28;20050;-87
2023/12/20 07:53:52;;;;;;;1999.90;999.90;;;;;;;;;;4962752;28;20058;-84
2023/12/20 07:56:21;;;;;;;1999.90;999.90;;;;;;;;;;4963258;28;20062;-86
2023/12/20 07:58:48;;;;;;;1999.90;999.90;;;;;;;;;;4980056;28;20065;-88
2023/12/20 08:01:17;;;;;;;1999.90;999.90;;;;;;;;;;4983711;28;20632;-87
2023/12/20 08:03:47;;;;;;;1999.90;999.90;;;;;;;;;;4967379;28;20043;-86
2023/12/20 08:06:13;;;;;;;1999.90;999.90;;;;;;;;;;4991334;28;20046;-88
2023/12/20 08:08:41;;;;;;;1999.90;999.90;;;;;;;;;;5004164;28;20045;-88
2023/12/20 08:11:08;;;;;;;1999.90;999.90;;;;;;;;;;4995414;28;20051;-88
2023/12/20 08:13:34;;;;;;;1999.90;999.90;;;;;;;;;;4983801;28;20054;-88
2023/12/20 08:16:02;;;;;;;1999.90;999.90;;;;;;;;;;4993325;28;20058;-88
2023/12/20 08:18:29;;;;;;;1999.90;999.90;;;;;;;;;;4977624;28;20127;-88
2023/12/20 08:20:58;;;;;;;1999.90;999.90;;;;;;;;;;4967202;28;20054;-88
2023/12/20 08:23:24;;;;;;;1999.90;999.90;;;;;;;;;;4967789;28;20443;-88
2023/12/20 08:25:52;;;;;;;1999.90;999.90;;;;;;;;;;4975376;28;20172;-88
2023/12/20 08:28:18;;;;;;;1999.90;999.90;;;;;;;;;;4972930;28;20065;-87
2023/12/20 08:30:45;;;;;;;1999.90;999.90;;;;;;;;;;4990001;28;20054;-89
2023/12/20 08:33:12;;;;;;;1999.90;999.90;;;;;;;;;;4981608;28;20046;-90
2023/12/20 08:35:39;;;;;;;1999.90;999.90;;;;;;;;;;4964963;28;20569;-88
2023/12/20 08:38:11;;;;;;;1999.90;999.90;;;;;;;;;;4981197;28;20050;-88
2023/12/20 08:40:39;;;;;;;1999.90;999.90;;;;;;;;;;4975905;28;20042;-88
2023/12/20 08:43:05;;;;;;;1999.90;999.90;;;;;;;;;;4985645;28;20058;-89
2023/12/20 08:45:34;;;;;;;1999.90;999.90;;;;;;;;;;4967256;28;20490;-87
2023/12/20 08:48:01;;;;;;;1999.90;999.90;;;;;;;;;;4951251;28;20046;-88
2023/12/20 08:50:28;;;;;;;1999.90;999.90;;;;;;;;;;4991470;28;20092;-88
2023/12/20 08:52:55;;;;;;;1999.90;999.90;;;;;;;;;;4984016;28;20051;-86
2023/12/20 08:55:24;;;;;;;1999.90;999.90;;;;;;;;;;4984659;28;20283;-87
2023/12/20 08:57:50;;;;;;;1999.90;999.90;;;;;;;;;;4970212;28;20042;-86
2023/12/20 09:00:20;;;;;;;1999.90;999.90;;;;;;;;;;4979579;28;20078;-86
2023/12/20 09:02:47;;;;;;;1999.90;999.90;;;;;;;;;;4982945;28;20109;-88
2023/12/20 09:05:14;;;;;;;1999.90;999.90;;;;;;;;;;4962790;28;20092;-88
2023/12/20 09:07:40;;;;;;;1999.90;999.90;;;;;;;;;;4982382;28;20060;-87
2023/12/20 09:10:09;;;;;;;1999.90;999.90;;;;;;;;;;4982239;28;20426;-87
2023/12/20 09:12:39;;;;;;;1999.90;999.90;;;;;;;;;;4969420;28;20062;-87
2023/12/20 09:15:06;;;;;;;1999.90;999.90;;;;;;;;;;4967687;28;20090;-87
2023/12/20 09:17:35;;;;;;;1999.90;999.90;;;;;;;;;;4965598;28;20057;-88
2023/12/20 09:20:02;;;;;;;1999.90;999.90;;;;;;;;;;4966002;28;20062;-87
2023/12/20 09:22:29;;;;;;;1999.90;999.90;;;;;;;;;;4980068;28;20090;-87
2023/12/20 09:24:56;;;;;;;1999.90;999.90;;;;;;;;;;4966096;28;20042;-87
2023/12/20 09:27:22;;;;;;;1999.90;999.90;;;;;;;;;;4979440;28;20062;-86
2023/12/20 09:29:50;;;;;;;1999.90;999.90;;;;;;;;;;4981153;28;20462;-87
2023/12/20 09:32:20;;;;;;;1999.90;999.90;;;;;;;;;;4981363;28;20046;-88
2023/12/20 09:34:47;;;;;;;1999.90;999.90;;;;;;;;;;4968972;28;20046;-87
2023/12/20 09:37:18;;;;;;;1999.90;999.90;;;;;;;;;;4956552;28;20050;-88
2023/12/20 09:39:45;;;;;;;1999.90;999.90;;;;;;;;;;4977829;28;20058;-87
2023/12/20 09:42:13;;;;;;;1999.90;999.90;;;;;;;;;;4950893;28;20392;-89
2023/12/20 09:44:42;;;;;;;1999.90;999.90;;;;;;;;;;4980004;28;20050;-88
2023/12/20 09:47:11;;;;;;;1999.90;999.90;;;;;;;;;;4982710;28;20501;-89
2023/12/20 09:49:37;;;;;;;1999.90;999.90;;;;;;;;;;4987600;28;20042;-89
2023/12/20 09:52:06;;;;;;;1999.90;999.90;;;;;;;;;;4986319;28;20134;-89
2023/12/20 09:54:34;;;;;;;1999.90;999.90;;;;;;;;;;4979161;28;20049;-90
2023/12/20 09:57:01;;;;;;;1999.90;999.90;;;;;;;;;;4980794;28;20078;-88
2023/12/20 09:59:27;;;;;;;1999.90;999.90;;;;;;;;;;4992807;28;20051;-87
2023/12/20 10:01:56;;;;;;;1999.90;999.90;;;;;;;;;;4986117;28;20503;-87
2023/12/20 10:04:25;;;;;;;1999.90;999.90;;;;;;;;;;4987915;28;20069;-88
2023/12/20 10:07:03;;;;;;;1999.90;999.90;;;;;;;;;;4989042;28;20050;-88
2023/12/20 10:09:33;;;;;;;1999.90;999.90;;;;;;;;;;4988502;28;20415;-89
2023/12/20 10:12:00;;;;;;;1999.90;999.90;;;;;;;;;;4984244;28;20068;-89
2023/12/20 10:14:27;;;;;;;1999.90;999.90;;;;;;;;;;4975965;28;20058;-88
2023/12/20 10:16:55;;;;;;;1999.90;999.90;;;;;;;;;;4977177;28;20050;-90
2023/12/20 10:19:25;;;;;;;1999.90;999.90;;;;;;;;;;4974452;28;20061;-88
2023/12/20 10:21:52;;;;;;;1999.90;999.90;;;;;;;;;;4983631;28;20055;-90
2023/12/20 10:24:19;;;;;;;1999.90;999.90;;;;;;;;;;4986307;28;20113;-89
2023/12/20 10:26:46;;;;;;;1999.90;999.90;;;;;;;;;;4990938;28;20065;-89
2023/12/20 10:29:13;;;;;;;1999.90;999.90;;;;;;;;;;4990113;28;20433;-90
2023/12/20 10:31:39;;;;;;;1999.90;999.90;;;;;;;;;;4993500;28;20101;-91
2023/12/20 10:34:06;;;;;;;1999.90;999.90;;;;;;;;;;4988597;28;20141;-90
2023/12/20 10:36:36;;;;;;;1999.90;999.90;;;;;;;;;;4987290;28;20116;-90
2023/12/20 10:39:03;;;;;;;1999.90;999.90;;;;;;;;;;4986779;28;20153;-91
2023/12/20 10:41:31;;;;;;;1999.90;999.90;;;;;;;;;;4984634;28;20061;-89
2023/12/20 10:44:00;;;;;;;1999.90;999.90;;;;;;;;;;4993991;28;20142;-91
2023/12/20 10:46:28;;;;;;;1999.90;999.90;;;;;;;;;;4991259;28;20513;-90
2023/12/20 10:48:55;;;;;;;1999.90;999.90;;;;;;;;;;4992475;28;20046;-89
2023/12/20 10:51:22;;;;;;;1999.90;999.90;;;;;;;;;;4983496;28;20061;-88
2023/12/20 10:53:52;;;;;;;1999.90;999.90;;;;;;;;;;4984944;28;20046;-90
2023/12/20 10:56:18;;;;;;;1999.90;999.90;;;;;;;;;;4982784;28;20098;-89
2023/12/20 10:58:47;;;;;;;1999.90;999.90;;;;;;;;;;4991814;28;20692;-90
2023/12/20 11:01:15;;;;;;;1999.90;999.90;;;;;;;;;;4984752;28;20804;-88
2023/12/20 11:03:46;;;;;;;1999.90;999.90;;;;;;;;;;4983886;28;20058;-88
2023/12/20 11:06:21;;;;;;;1999.90;999.90;;;;;;;;;;4967784;28;20129;-88
2023/12/20 11:08:51;;;;;;;1999.90;999.90;;;;;;;;;;4982796;28;20051;-86
2023/12/20 11:11:22;;;;;;;1999.90;999.90;;;;;;;;;;4960702;28;20047;-86
2023/12/20 11:13:55;;;;;;;1999.90;999.90;;;;;;;;;;4984872;28;20050;-88
2023/12/20 11:16:22;;;;;;;1999.90;999.90;;;;;;;;;;4985837;28;20138;-87
2023/12/20 11:18:52;;;;;;;1999.90;999.90;;;;;;;;;;4957809;28;20066;-87
2023/12/20 11:21:19;;;;;;;1999.90;999.90;;;;;;;;;;4971059;28;20054;-88
2023/12/20 11:23:45;;;;;;;1999.90;999.90;;;;;;;;;;4977430;28;20054;-86
2023/12/20 11:26:16;;;;;;;1999.90;999.90;;;;;;;;;;4969679;28;20054;-86
2023/12/20 11:28:43;;;;;;;1999.90;999.90;;;;;;;;;;4984167;28;20137;-87
2023/12/20 11:31:10;;;;;;;1999.90;999.90;;;;;;;;;;5000602;28;20118;-88
2023/12/20 11:33:38;;;;;;;1999.90;999.90;;;;;;;;;;5002856;28;20050;-87
2023/12/20 11:36:14;;;;;;;1999.90;999.90;;;;;;;;;;4990014;28;20058;-87
2023/12/20 11:38:55;;;;;;;1999.90;999.90;;;;;;;;;;4968291;28;20054;-87
2023/12/20 11:41:25;;;;;;;1999.90;999.90;;;;;;;;;;4981624;28;20055;-87
2023/12/20 11:43:54;;;;;;;1999.90;999.90;;;;;;;;;;4977947;28;20053;-88
2023/12/20 11:46:21;;;;;;;1999.90;999.90;;;;;;;;;;4954014;28;20055;-87
2023/12/20 11:48:49;;;;;;;1999.90;999.90;;;;;;;;;;4964428;28;20047;-88
2023/12/20 11:51:16;;;;;;;1999.90;999.90;;;;;;;;;;4980111;28;20062;-85
2023/12/20 11:53:43;;;;;;;1999.90;999.90;;;;;;;;;;4980248;28;20047;-87
2023/12/20 11:56:11;;;;;;;1999.90;999.90;;;;;;;;;;4980683;28;20047;-87
2023/12/20 11:58:39;;;;;;;1999.90;999.90;;;;;;;;;;4973913;28;20047;-87
2023/12/20 12:01:07;;;;;;;1999.90;999.90;;;;;;;;;;4979298;28;20817;-86
2023/12/20 12:03:34;;;;;;;1999.90;999.90;;;;;;;;;;4970778;28;20047;-86
2023/12/20 12:06:04;;;;;;;1999.90;999.90;;;;;;;;;;4981453;28;20054;-86
2023/12/20 12:08:30;;;;;;;1999.90;999.90;;;;;;;;;;4981246;28;20046;-86
2023/12/20 12:10:57;;;;;;;1999.90;999.90;;;;;;;;;;4983673;28;20065;-86
2023/12/20 12:13:27;;;;;;;1999.90;999.90;;;;;;;;;;4972456;28;20052;-86
2023/12/20 12:15:57;;;;;;;1999.90;999.90;;;;;;;;;;4964210;28;20051;-86
2023/12/20 12:18:26;;;;;;;1999.90;999.90;;;;;;;;;;4961874;28;20046;-86
2023/12/20 12:21:01;;;;;;;1999.90;999.90;;;;;;;;;;4968941;28;20497;-86
2023/12/20 12:23:28;;;;;;;1999.90;999.90;;;;;;;;;;4982544;28;20051;-86
2023/12/20 12:25:56;;;;;;;1999.90;999.90;;;;;;;;;;4955478;28;20058;-86
2023/12/20 12:28:23;;;;;;;1999.90;999.90;;;;;;;;;;4978014;28;20043;-86
2023/12/20 12:30:59;;;;;;;1999.90;999.90;;;;;;;;;;4981259;28;20053;-85
2023/12/20 12:33:27;;;;;;;1999.90;999.90;;;;;;;;;;4982021;28;20057;-85
2023/12/20 12:35:55;;;;;;;1999.90;999.90;;;;;;;;;;4973275;28;20454;-85
2023/12/20 12:38:24;;;;;;;1999.90;999.90;;;;;;;;;;4947746;28;20058;-86
2023/12/20 12:40:53;;;;;;;1999.90;999.90;;;;;;;;;;4967694;28;20046;-87
2023/12/20 12:43:20;;;;;;;1999.90;999.90;;;;;;;;;;4981556;28;20058;-87
2023/12/20 12:45:46;;;;;;;1999.90;999.90;;;;;;;;;;4966171;28;20054;-86
2023/12/20 12:48:15;;;;;;;1999.90;999.90;;;;;;;;;;4980097;28;20046;-85
2023/12/20 12:50:43;;;;;;;1999.90;999.90;;;;;;;;;;4949589;28;20078;-87
2023/12/20 12:53:11;;;;;;;1999.90;999.90;;;;;;;;;;4963497;28;20510;-87
2023/12/20 12:55:37;;;;;;;1999.90;999.90;;;;;;;;;;4980524;28;20051;-86
2023/12/20 12:58:05;;;;;;;1999.90;999.90;;;;;;;;;;4984000;28;20051;-87
2023/12/20 13:00:32;;;;;;;1999.90;999.90;;;;;;;;;;4983856;28;20081;-86
2023/12/20 13:02:59;;;;;;;1999.90;999.90;;;;;;;;;;4967684;28;20046;-87
2023/12/20 13:05:27;;;;;;;1999.90;999.90;;;;;;;;;;4979594;28;20051;-88
2023/12/20 13:08:00;;;;;;;1999.90;999.90;;;;;;;;;;4978982;28;20074;-87
2023/12/20 13:10:26;;;;;;;1999.90;999.90;;;;;;;;;;4953938;28;20055;-86
2023/12/20 13:12:53;;;;;;;1999.90;999.90;;;;;;;;;;4962760;28;20780;-86
2023/12/20 13:15:20;;;;;;;1999.90;999.90;;;;;;;;;;4960370;28;20058;-87
2023/12/20 13:17:47;;;;;;;1999.90;999.90;;;;;;;;;;4946199;28;20413;-87
2023/12/20 13:20:14;;;;;;;1999.90;999.90;;;;;;;;;;4947965;28;20050;-88
2023/12/20 13:22:42;;;;;;;1999.90;999.90;;;;;;;;;;4982224;28;20059;-88
2023/12/20 13:25:09;;;;;;;1999.90;999.90;;;;;;;;;;4966868;28;20173;-85
2023/12/20 13:27:36;;;;;;;1999.90;999.90;;;;;;;;;;4978474;28;20061;-86
2023/12/20 13:30:03;;;;;;;1999.90;999.90;;;;;;;;;;4970625;28;20057;-87
2023/12/20 13:32:30;;;;;;;1999.90;999.90;;;;;;;;;;4988446;28;20054;-86
2023/12/20 13:34:57;;;;;;;1999.90;999.90;;;;;;;;;;4984092;28;20054;-86
2023/12/20 13:37:27;;;;;;;1999.90;999.90;;;;;;;;;;4967970;28;20430;-85
2023/12/20 13:39:55;;;;;;;1999.90;999.90;;;;;;;;;;4992434;28;20046;-86
2023/12/20 13:42:23;;;;;;;1999.90;999.90;;;;;;;;;;4985539;28;20048;-87
2023/12/20 13:44:49;;;;;;;1999.90;999.90;;;;;;;;;;4988049;28;20058;-87
2023/12/20 13:47:16;;;;;;;1999.90;999.90;;;;;;;;;;4988162;28;20084;-87
2023/12/20 13:49:44;;;;;;;1999.90;999.90;;;;;;;;;;4982399;28;20047;-86
2023/12/20 13:52:11;;;;;;;1999.90;999.90;;;;;;;;;;4968649;28;20051;-86
2023/12/20 13:54:38;;;;;;;1999.90;999.90;;;;;;;;;;4986365;28;20057;-86
2023/12/20 13:57:06;;;;;;;1999.90;999.90;;;;;;;;;;4984657;28;20076;-86
2023/12/20 13:59:32;;;;;;;1999.90;999.90;;;;;;;;;;4987847;28;20542;-87
2023/12/20 14:02:01;;;;;;;1999.90;999.90;;;;;;;;;;4986374;28;20723;-87
2023/12/20 14:04:27;;;;;;;1999.90;999.90;;;;;;;;;;4986966;28;20055;-87
2023/12/20 14:07:10;;;;;;;1999.90;999.90;;;;;;;;;;4985762;28;20054;-87
2023/12/20 14:09:36;;;;;;;1999.90;999.90;;;;;;;;;;4987136;28;20065;-86
2023/12/20 14:12:04;;;;;;;1999.90;999.90;;;;;;;;;;4969859;28;20425;-84
2023/12/20 14:14:32;;;;;;;1999.90;999.90;;;;;;;;;;4983120;28;20058;-86
2023/12/20 14:16:58;;;;;;;1999.90;999.90;;;;;;;;;;4981040;28;20430;-87
2023/12/20 14:19:27;;;;;;;1999.90;999.90;;;;;;;;;;4959213;28;20054;-89
2023/12/20 14:21:54;;;;;;;1999.90;999.90;;;;;;;;;;4953748;28;20050;-87
2023/12/20 14:24:21;;;;;;;1999.90;999.90;;;;;;;;;;4977393;28;20050;-87
2023/12/20 14:26:47;;;;;;;1999.90;999.90;;;;;;;;;;4993741;28;20050;-86